Latest Weather Observations for Jabiru

IDD60801

Issued at 12:11 pm CST Tuesday 30 November 2021 (issued every 10 minutes, with the page automatically refreshed every 10 minutes)

About weather observations | Map of weather stations | Latest weather observations for NT | Other Formats
Station Details ID: 014198 Name: JABIRU AIRPORT Lat: -12.66 Lon: 132.89 Height: 26.5 m
Data from the previous 72 hours. | See also: Recent months at Jabiru
Date/Time
CST
Temp
°C
App
Temp
°C
Dew
Point
°C
Rel
Hum
%
Delta-T
°C
Wind Press
QNH
hPa
Press
MSL
hPa
Rain since
9am
mm
Dir  Spd
km/h
Gust
km/h
Spd
kts
Gust
kts
30/12:00pm 35.1 39.9 22.1 47 8.9 CALM 0 0 0 0 1007.1 1006.9 0.0
30/11:30am 34.0 39.1 22.7 51 7.8 CALM 0 0 0 0 1007.5 1007.3 0.0
30/11:00am 34.1 39.7 23.5 54 7.4 CALM 0 0 0 0 1007.9 1007.7 0.0
30/10:30am 33.5 38.7 22.9 53 7.3 CALM 0 0 0 0 1008.4 1008.1 0.0
30/10:00am 32.6 38.5 24.1 61 5.9 CALM 0 0 0 0 1008.9 1008.6 0.0
30/09:30am 32.0 38.0 24.3 63 5.4 CALM 0 0 0 0 1009.2 1008.9 0.0
30/09:00am 31.3 37.1 23.9 64 5.2 CALM 0 0 0 0 1009.1 1008.8 0.0
30/08:30am 30.7 36.0 24.4 69 4.4 WNW 4 11 2 6 1009.1 1008.8 0.0
30/08:00am 29.8 35.8 24.2 72 3.9 CALM 0 7 0 4 1008.9 1008.6 0.0
30/07:30am 29.1 35.4 24.7 77 3.1 CALM 0 0 0 0 1008.6 1008.3 0.0
30/07:00am 28.8 35.1 24.8 79 2.8 CALM 0 0 0 0 1008.4 1008.1 0.0
30/06:30am 27.3 33.6 24.7 86 1.8 CALM 0 0 0 0 1008.1 1007.8 0.0
30/06:00am 26.8 32.0 24.8 89 1.4 NNW 6 7 3 4 1007.7 1007.5 0.0
30/05:30am 26.9 33.3 24.9 89 1.4 CALM 0 0 0 0 1007.7 1007.5 0.0
30/05:00am 27.6 33.6 24.2 82 2.4 CALM 0 0 0 0 1007.6 1007.4 0.0
30/04:30am 27.6 33.6 24.2 82 2.4 CALM 0 0 0 0 1007.4 1007.2 0.0
30/04:00am 27.6 33.6 24.2 82 2.4 CALM 0 0 0 0 1007.1 1006.9 0.0
30/03:30am 27.6 33.6 24.2 82 2.4 CALM 0 0 0 0 1007.3 1007.1 0.0
30/03:00am 28.1 32.8 24.3 80 2.6 WNW 7 9 4 5 1007.1 1006.9 0.0
30/02:30am 27.7 32.0 24.3 82 2.4 WSW 9 11 5 6 1007.3 1007.1 0.0
30/02:00am 28.2 34.4 24.6 81 2.5 CALM 0 7 0 4 1007.5 1007.3 0.0
30/01:30am 28.2 34.3 24.4 80 2.6 CALM 0 0 0 0 1007.7 1007.5 0.0
30/01:00am 28.0 34.2 24.6 82 2.4 CALM 0 2 0 1 1008.3 1008.0 0.0
30/12:30am 27.7 33.1 24.5 83 2.2 E 4 9 2 5 1008.4 1008.1 0.0
30/12:00am 28.2 33.0 24.4 80 2.6 NNW 7 9 4 5 1008.5 1008.2 0.0
 
Date/Time
CST
Temp
°C
App
Temp
°C
Dew
Point
°C
Rel
Hum
%
Delta-T
°C
Wind Press
QNH
hPa
Press
MSL
hPa
Rain since
9am
mm
Dir  Spd
km/h
Gust
km/h
Spd
kts
Gust
kts
29/11:30pm 28.7 33.5 24.5 78 2.9 WNW 7 9 4 5 1008.6 1008.3 0.0
29/11:00pm 28.7 33.7 24.5 78 2.9 NW 6 9 3 5 1008.6 1008.3 0.0
29/10:30pm 28.9 33.7 24.2 76 3.3 NNW 6 9 3 5 1008.5 1008.2 0.0
29/10:00pm 29.0 34.3 24.3 76 3.3 N 4 7 2 4 1008.3 1008.0 0.0
29/09:30pm 29.7 34.3 24.1 72 3.9 NNW 7 11 4 6 1007.9 1007.7 0.0
29/09:00pm 29.9 33.3 24.1 71 4.0 N 13 15 7 8 1007.5 1007.3 0.0
29/08:30pm 30.5 34.0 24.2 69 4.4 N 13 20 7 11 1007.1 1006.9 0.0
29/08:00pm 30.7 36.9 24.6 70 4.3 CALM 0 0 0 0 1006.5 1006.3 0.0
29/07:30pm 31.7 37.2 24.0 63 5.4 N 2 26 1 14 1005.8 1005.6 0.0
29/07:00pm 35.1 38.2 18.6 37 10.8 CALM 0 0 0 0 1005.0 1004.8 0.0
29/06:30pm 36.0 38.7 17.7 34 11.9 CALM 0 0 0 0 1004.6 1004.4 0.0
29/06:00pm 36.8 39.4 17.4 32 12.6 CALM 0 0 0 0 1004.3 1004.1 0.0
29/05:30pm 37.1 39.3 16.6 29 13.2 CALM 0 0 0 0 1004.3 1004.1 0.0
29/05:00pm 37.2 39.3 16.2 29 13.4 CALM 0 0 0 0 1004.1 1003.9 0.0
29/04:30pm 37.5 39.5 15.9 28 13.8 CALM 0 0 0 0 1004.2 1004.0 0.0
29/04:00pm 37.4 39.6 16.4 29 13.4 CALM 0 0 0 0 1004.1 1003.9 0.0
29/03:30pm 37.2 39.5 16.7 29 13.2 CALM 0 0 0 0 1004.5 1004.3 0.0
29/03:00pm 36.5 38.7 16.6 30 12.8 CALM 0 0 0 0 1004.9 1004.7 0.0
29/02:30pm 37.1 39.5 17.1 30 12.9 CALM 0 0 0 0 1005.4 1005.2 0.0
29/02:00pm 35.7 38.6 18.3 35 11.4 CALM 0 0 0 0 1005.9 1005.7 0.0
29/01:30pm 36.2 39.3 18.7 35 11.5 CALM 0 0 0 0 1006.3 1006.1 0.0
29/01:00pm 36.1 38.7 20.4 40 10.6 SW 7 13 4 7 1007.0 1006.8 0.0
29/12:30pm 35.2 37.0 20.3 41 10.0 SE 11 17 6 9 1007.6 1007.4 0.0
29/12:00pm 34.0 36.9 21.1 47 8.7 SW 7 13 4 7 1008.2 1007.9 0.0
29/11:30am 33.4 38.1 21.9 51 7.8 CALM 0 0 0 0 1008.7 1008.4 0.0
29/11:00am 33.0 37.9 22.4 53 7.3 CALM 0 0 0 0 1009.1 1008.8 0.0
29/10:30am 32.5 37.2 22.0 54 7.2 CALM 0 0 0 0 1009.4 1009.1 0.0
29/10:00am 31.5 36.5 22.5 59 6.2 CALM 0 0 0 0 1009.6 1009.3 0.0
29/09:30am 31.0 36.1 22.6 61 5.7 CALM 0 0 0 0 1009.8 1009.5 0.0
29/09:00am 30.4 36.0 23.6 67 4.7 CALM 0 0 0 0 1009.7 1009.4 0.0
29/08:30am 29.7 35.5 23.9 71 4.0 CALM 0 0 0 0 1009.6 1009.3 0.0
29/08:00am 29.0 34.8 23.9 74 3.5 CALM 0 0 0 0 1009.5 1009.2 0.0
29/07:30am 27.3 33.0 23.7 81 2.5 CALM 0 0 0 0 1009.1 1008.8 0.0
29/07:00am 25.6 31.3 23.7 89 1.3 CALM 0 0 0 0 1008.9 1008.6 0.0
29/06:30am 25.4 31.0 23.5 89 1.3 CALM 0 0 0 0 1008.5 1008.2 0.0
29/06:00am 25.3 31.1 23.9 92 1.0 CALM 0 0 0 0 1008.1 1007.8 0.0
29/05:30am 25.2 30.8 23.6 91 1.1 CALM 0 0 0 0 1007.8 1007.6 0.0
29/05:00am 25.1 30.5 23.3 90 1.2 CALM 0 0 0 0 1007.5 1007.3 0.0
29/04:30am 25.0 30.4 23.2 90 1.2 CALM 0 0 0 0 1007.2 1007.0 0.0
29/04:00am 25.1 30.5 23.2 89 1.3 CALM 0 0 0 0 1007.0 1006.8 0.0
29/03:30am 25.4 30.8 23.3 88 1.4 CALM 0 0 0 0 1007.1 1006.9 0.0
29/03:00am 25.8 31.0 22.9 84 2.0 CALM 0 0 0 0 1007.1 1006.9 0.0
29/02:30am 25.8 30.9 22.7 83 2.1 CALM 0 0 0 0 1007.4 1007.2 0.0
29/02:00am 25.8 30.9 22.7 83 2.1 CALM 0 0 0 0 1007.5 1007.3 0.0
29/01:30am 25.6 30.6 22.5 83 2.1 CALM 0 0 0 0 1007.8 1007.6 0.0
29/01:00am 25.7 31.2 23.4 87 1.6 CALM 0 0 0 0 1008.1 1007.8 0.0
29/12:30am 25.8 29.8 23.1 85 1.8 ESE 7 9 4 5 1008.2 1007.9 0.0
29/12:00am 26.2 30.4 23.1 83 2.1 ESE 6 6 3 3 1008.3 1008.0 0.0
 
Date/Time
CST
Temp
°C
App
Temp
°C
Dew
Point
°C
Rel
Hum
%
Delta-T
°C
Wind Press
QNH
hPa
Press
MSL
hPa
Rain since
9am
mm
Dir  Spd
km/h
Gust
km/h
Spd
kts
Gust
kts
28/11:30pm 26.4 31.8 23.3 83 2.1 CALM 0 0 0 0 1008.3 1008.0 0.0
28/11:00pm 26.4 31.6 22.9 81 2.4 CALM 0 0 0 0 1008.4 1008.1 0.0
28/10:30pm 26.7 31.7 23.2 81 2.4 NE 2 6 1 3 1008.5 1008.2 0.0
28/10:00pm 26.9 31.8 22.3 76 3.1 CALM 0 0 0 0 1008.7 1008.4 0.0
28/09:30pm 27.0 32.1 22.6 77 3.0 CALM 0 4 0 2 1008.5 1008.2 0.0
28/09:00pm 27.4 32.5 22.6 75 3.3 CALM 0 6 0 3 1008.1 1007.8 0.0
28/08:30pm 27.8 32.7 22.3 72 3.7 CALM 0 0 0 0 1007.9 1007.7 0.0
28/08:00pm 28.3 33.3 22.5 71 3.9 CALM 0 4 0 2 1007.6 1007.4 0.0
28/07:30pm 28.8 33.7 22.3 68 4.4 CALM 0 0 0 0 1007.4 1007.2 0.0
28/07:00pm 29.5 32.8 22.5 66 4.8 N 9 15 5 8 1007.1 1006.9 0.0
28/06:30pm 29.9 31.8 22.1 63 5.3 N 15 22 8 12 1006.9 1006.7 0.0
28/06:00pm 30.4 32.1 22.3 62 5.5 N 17 26 9 14 1006.4 1006.2 0.0
28/05:30pm 30.7 31.8 22.3 61 5.7 NNW 20 28 11 15 1006.1 1005.9 0.0
28/05:07pm 30.3 33.5 21.7 60 5.8 N 7 33 4 18 1006.0 1005.8 0.0
28/05:00pm 31.7 35.9 20.9 52 7.2 CALM 0 0 0 0 1005.9 1005.7 0.0
28/04:30pm 33.7 37.3 19.7 43 9.3 CALM 0 0 0 0 1005.9 1005.7 0.0
28/04:00pm 33.4 36.9 19.5 44 9.2 CALM 0 0 0 0 1005.9 1005.7 0.0
28/03:30pm 33.7 37.0 19.0 42 9.7 CALM 0 0 0 0 1006.0 1005.8 0.0
28/03:00pm 34.5 37.7 18.9 39 10.3 CALM 0 0 0 0 1006.2 1006.0 0.0
28/02:30pm 35.9 38.5 17.6 34 11.9 CALM 0 0 0 0 1006.5 1006.3 0.0
28/02:00pm 35.8 38.6 17.9 34 11.6 CALM 0 0 0 0 1006.9 1006.7 0.0
28/01:30pm 35.8 35.9 18.4 35 11.4 ESE 15 26 8 14 1007.3 1007.1 0.0
28/01:00pm 35.0 33.9 17.7 36 11.2 E 20 30 11 16 1007.8 1007.6 0.0
28/12:30pm 34.0 37.2 18.9 41 9.9 CALM 0 0 0 0 1008.4 1008.1 0.0
28/12:00pm 32.7 36.7 20.6 49 8.1 CALM 0 0 0 0 1009.0 1008.7 0.0
28/11:30am 32.7 37.9 22.8 56 6.8 CALM 0 0 0 0 1009.7 1009.4 0.0
28/11:00am 32.0 36.3 21.2 52 7.3 CALM 0 0 0 0 1009.9 1009.6 0.0
28/10:30am 31.3 35.9 21.8 57 6.4 CALM 0 0 0 0 1010.2 1009.9 0.0
28/10:00am 31.0 36.1 22.6 61 5.7 CALM 0 0 0 0 1010.5 1010.2 0.0
28/09:30am 29.7 34.6 22.4 65 5.0 CALM 0 0 0 0 1010.4 1010.1 0.0
28/09:00am 28.8 34.7 24.1 76 3.3 CALM 0 0 0 0 1010.6 1010.3 13.6
28/08:30am 27.0 32.7 23.7 82 2.3 CALM 0 0 0 0 1010.3 1010.0 13.6
28/08:00am 25.9 31.7 23.9 89 1.4 CALM 0 0 0 0 1010.4 1010.1 13.6
28/07:30am 25.4 31.0 23.6 90 1.2 CALM 0 0 0 0 1010.1 1009.8 13.6
28/07:00am 25.0 30.5 23.4 91 1.1 CALM 0 0 0 0 1009.5 1009.2 13.6
28/06:30am 24.9 30.2 23.1 90 1.2 CALM 0 0 0 0 1009.3 1009.0 13.6
28/06:00am 24.6 30.2 23.6 94 0.7 CALM 0 0 0 0 1009.0 1008.7 13.6
28/05:30am 24.6 30.0 23.2 92 1.0 CALM 0 0 0 0 1008.6 1008.3 13.6
28/05:00am 25.3 31.0 23.7 91 1.1 CALM 0 0 0 0 1008.4 1008.1 13.6
28/04:30am 25.0 30.6 23.6 92 1.0 CALM 0 0 0 0 1008.4 1008.1 13.6
28/04:00am 24.8 30.3 23.4 92 1.0 CALM 0 0 0 0 1008.3 1008.0 13.6
28/03:30am 24.7 30.1 23.3 92 1.0 CALM 0 0 0 0 1008.1 1007.8 13.6
28/03:00am 24.3 29.5 22.9 92 0.9 CALM 0 0 0 0 1007.8 1007.6 13.6
28/02:30am 23.9 29.0 22.7 93 0.8 CALM 0 0 0 0 1007.5 1007.3 13.6
28/02:00am 23.6 28.5 22.4 93 0.8 CALM 0 0 0 0 1007.6 1007.4 13.6
28/01:30am 23.4 28.2 22.2 93 0.8 CALM 0 0 0 0 1007.9 1007.7 13.6
28/01:00am 23.4 28.1 22.0 92 0.9 CALM 0 0 0 0 1008.2 1007.9 13.6
28/12:30am 23.9 28.7 22.2 90 1.1 CALM 0 0 0 0 1008.4 1008.1 13.6
28/12:00am 22.8 27.3 21.6 93 0.8 CALM 0 0 0 0 1009.7 1009.4 12.6
 
Date/Time
CST
Temp
°C
App
Temp
°C
Dew
Point
°C
Rel
Hum
%
Delta-T
°C
Wind Press
QNH
hPa
Press
MSL
hPa
Rain since
9am
mm
Dir  Spd
km/h
Gust
km/h
Spd
kts
Gust
kts
27/11:30pm 22.8 25.6 21.6 93 0.8 SSE 9 15 5 8 1010.5 1010.2 12.0
27/11:09pm 22.8 24.0 21.4 92 0.9 SE 17 28 9 15 1010.4 1010.1 11.2
27/11:00pm 23.0 24.0 21.8 93 0.8 SE 19 32 10 17 1010.5 1010.2 10.8
27/10:30pm 23.6 24.2 22.8 95 0.5 SE 24 37 13 20 1010.1 1009.8 6.2
27/10:17pm 24.3 24.2 22.9 92 0.9 E 28 46 15 25 1010.0 1009.7 1.8
27/10:09pm 25.7 25.3 22.4 82 2.2 ESE 28 46 15 25 1009.5 1009.2 0.2
27/10:00pm 28.1 33.1 23.2 74 3.4 ENE 2 32 1 17 1009.3 1009.0 0.2
27/09:30pm 29.1 35.2 24.4 76 3.3 CALM 0 0 0 0 1008.5 1008.2 0.2
27/09:00pm 29.0 35.6 25.2 80 2.7 CALM 0 0 0 0 1008.2 1007.9 0.2
27/08:30pm 29.7 36.0 24.8 75 3.4 CALM 0 0 0 0 1007.9 1007.7 0.2
27/08:00pm 30.1 36.7 25.2 75 3.5 CALM 0 0 0 0 1007.5 1007.3 0.2
27/07:30pm 30.4 37.0 25.2 74 3.7 CALM 0 0 0 0 1007.1 1006.9 0.2
27/07:00pm 30.7 36.9 24.6 70 4.3 CALM 0 0 0 0 1006.7 1006.5 0.2
27/06:30pm 31.3 37.6 24.7 68 4.6 CALM 0 0 0 0 1006.5 1006.3 0.2
27/06:00pm 31.5 37.1 23.6 63 5.5 CALM 0 0 0 0 1006.3 1006.1 0.2
27/05:30pm 31.5 37.4 24.1 65 5.2 CALM 0 0 0 0 1006.2 1006.0 0.2
27/05:00pm 32.2 37.9 23.7 61 5.9 CALM 0 0 0 0 1006.3 1006.1 0.2
27/04:30pm 32.5 38.0 23.4 58 6.3 CALM 0 0 0 0 1006.1 1005.9 0.2
27/04:00pm 32.0 37.9 24.1 63 5.5 CALM 0 0 0 0 1006.3 1006.1 0.2
27/03:30pm 31.9 37.1 22.9 59 6.2 CALM 0 0 0 0 1006.4 1006.2 0.2
27/03:00pm 31.9 37.3 23.2 60 6.0 CALM 0 0 0 0 1006.7 1006.5 0.2
27/02:30pm 31.5 36.8 23.1 61 5.8 CALM 0 0 0 0 1006.9 1006.7 0.2
27/02:00pm 31.5 37.1 23.6 63 5.5 CALM 0 0 0 0 1007.3 1007.1 0.2
27/01:30pm 31.2 36.5 23.0 61 5.6 CALM 0 0 0 0 1007.8 1007.6 0.2
27/01:00pm 30.5 36.2 23.7 67 4.7 CALM 0 0 0 0 1008.5 1008.2 0.2
27/12:44pm 29.9 35.3 23.3 67 4.5 CALM 0 0 0 0 1008.8 1008.5 0.2
27/12:30pm 29.6 35.4 24.0 72 3.9 CALM 0 6 0 3 1009.0 1008.7 0.2

Other formats

Comma delimited format used in spreadsheet applications
http://www.bom.gov.au/fwo/IDD60801/IDD60801.94137.axf

JavaScript Object Notation format (JSON) in row-major order
http://www.bom.gov.au/fwo/IDD60801/IDD60801.94137.json

Data quality

Most of these data are generated automatically and are frequently updated. Quality checks on data are not normally performed. It is possible for incorrect values to appear. Refer to information at About Latest Weather Observations and please check the disclaimer before using these data.